createdAt,value
2019-03-05T00:01:17.867Z,64.34
2019-03-05T00:03:46.411Z,64.16
2019-03-05T00:06:14.979Z,64.28
2019-03-05T00:08:43.621Z,64.36
2019-03-05T00:11:12.084Z,64.33
2019-03-05T00:13:40.626Z,64.26
2019-03-05T00:16:09.247Z,64.31
2019-03-05T00:18:37.831Z,64.33
2019-03-05T00:21:06.436Z,64.28
2019-03-05T00:23:50.063Z,64.40
2019-03-05T00:26:21.783Z,64.04
2019-03-05T00:29:15.930Z,63.97
2019-03-05T00:31:48.729Z,63.90
2019-03-05T00:34:32.197Z,63.95
2019-03-05T00:37:03.828Z,64.00
2019-03-05T00:39:41.421Z,64.07
2019-03-05T00:42:46.113Z,64.07
2019-03-05T00:45:23.423Z,64.10
2019-03-05T00:48:00.992Z,64.33
2019-03-05T00:50:35.478Z,64.07
2019-03-05T00:53:18.914Z,64.20
2019-03-05T00:55:56.451Z,64.21
2019-03-05T00:58:28.647Z,64.11
2019-03-05T01:01:11.901Z,63.72
2019-03-05T01:03:43.539Z,63.87
2019-03-05T01:06:16.955Z,63.76
2019-03-05T01:08:45.774Z,63.47
2019-03-05T01:11:14.888Z,63.28
2019-03-05T01:13:43.658Z,63.34
2019-03-05T01:16:13.871Z,63.22
2019-03-05T01:18:42.619Z,63.14
2019-03-05T01:21:11.321Z,63.07
2019-03-05T01:23:39.942Z,63.17
2019-03-05T01:26:08.822Z,63.05
2019-03-05T01:28:37.409Z,63.22
2019-03-05T01:31:07.812Z,63.44
2019-03-05T01:33:56.071Z,63.28
2019-03-05T01:36:26.206Z,63.51
2019-03-05T01:39:02.162Z,63.53
2019-03-05T01:41:31.186Z,63.55
2019-03-05T01:44:02.445Z,63.93
2019-03-05T01:46:30.983Z,63.68
2019-03-05T01:48:59.608Z,64.03
2019-03-05T01:51:28.150Z,64.24
2019-03-05T01:53:56.777Z,64.29
2019-03-05T01:56:25.295Z,64.43
2019-03-05T01:58:53.929Z,64.59
2019-03-05T02:01:22.790Z,64.66
2019-03-05T02:03:51.362Z,64.79
2019-03-05T02:06:20.984Z,65.00
2019-03-05T02:08:49.531Z,65.07
2019-03-05T02:11:18.162Z,65.13
2019-03-05T02:13:46.768Z,65.18
2019-03-05T02:16:15.297Z,65.25
2019-03-05T02:18:43.944Z,65.29
2019-03-05T02:21:12.531Z,65.43
2019-03-05T02:23:44.138Z,65.49
2019-03-05T02:26:18.377Z,65.59
2019-03-05T02:28:55.552Z,65.77
2019-03-05T02:31:59.879Z,65.91
2019-03-05T02:34:40.065Z,66.13
2019-03-05T02:37:23.720Z,66.75
2019-03-05T02:39:58.178Z,66.89
2019-03-05T02:42:47.667Z,67.03
2019-03-05T02:45:31.834Z,67.18
2019-03-05T02:48:06.336Z,67.63
2019-03-05T02:51:01.866Z,67.94
2019-03-05T02:53:39.419Z,68.17
2019-03-05T02:56:31.759Z,68.46
2019-03-05T02:58:59.146Z,68.47
2019-03-05T03:01:32.138Z,68.77
2019-03-05T03:04:08.010Z,68.98
2019-03-05T03:06:36.657Z,69.15
2019-03-05T03:09:25.877Z,69.39
2019-03-05T03:11:54.530Z,69.50
2019-03-05T03:14:23.107Z,69.66
2019-03-05T03:16:51.700Z,69.71
2019-03-05T03:19:20.589Z,69.63
2019-03-05T03:21:49.428Z,69.72
2019-03-05T03:24:17.951Z,69.58
2019-03-05T03:26:46.518Z,69.71
2019-03-05T03:29:15.150Z,69.74
2019-03-05T03:31:43.691Z,69.74
2019-03-05T03:34:12.312Z,69.81
2019-03-05T03:36:40.831Z,69.66
2019-03-05T03:39:09.569Z,69.44
2019-03-05T03:41:38.099Z,69.35
2019-03-05T03:44:06.618Z,69.37
2019-03-05T03:46:35.301Z,69.50
2019-03-05T03:49:03.904Z,69.32
2019-03-05T03:51:32.402Z,69.16
2019-03-05T03:54:00.936Z,69.17
2019-03-05T03:56:29.477Z,69.12
2019-03-05T03:58:58.003Z,69.21
2019-03-05T04:01:26.583Z,69.15
2019-03-05T04:03:55.157Z,69.35
2019-03-05T04:06:23.695Z,69.26
2019-03-05T04:08:52.286Z,69.43
2019-03-05T04:11:20.880Z,69.58
2019-03-05T04:13:49.523Z,69.65
2019-03-05T04:16:18.061Z,69.60
2019-03-05T04:18:46.627Z,70.00
2019-03-05T04:21:15.191Z,70.33
2019-03-05T04:23:43.680Z,70.85
2019-03-05T04:26:12.231Z,71.06
2019-03-05T04:28:40.804Z,71.16
2019-03-05T04:31:09.316Z,71.78
2019-03-05T04:33:38.082Z,72.14
2019-03-05T04:36:06.649Z,72.39
2019-03-05T04:38:35.167Z,72.82
2019-03-05T04:41:03.743Z,73.05
2019-03-05T04:43:32.201Z,73.48
2019-03-05T04:46:08.151Z,73.94
2019-03-05T04:48:36.811Z,74.01
2019-03-05T04:51:07.000Z,74.37
2019-03-05T04:53:35.533Z,74.76
2019-03-05T04:56:04.054Z,75.27
2019-03-05T04:58:32.656Z,75.34
2019-03-05T05:01:01.542Z,75.06
2019-03-05T05:03:30.315Z,75.21
2019-03-05T05:05:59.079Z,75.51
2019-03-05T05:08:27.711Z,75.80
2019-03-05T05:10:56.350Z,75.76
2019-03-05T05:13:24.946Z,75.97
2019-03-05T05:15:53.437Z,75.99
2019-03-05T05:18:22.013Z,76.00
2019-03-05T05:20:50.581Z,75.93
2019-03-05T05:23:19.188Z,76.09
2019-03-05T05:25:48.135Z,76.07
2019-03-05T05:28:16.902Z,75.82
2019-03-05T05:30:45.405Z,75.87
2019-03-05T05:33:14.608Z,75.64
2019-03-05T05:35:43.429Z,75.77
2019-03-05T05:38:12.013Z,75.68
2019-03-05T05:40:45.446Z,75.89
2019-03-05T05:43:19.425Z,76.21
2019-03-05T05:45:50.152Z,75.99
2019-03-05T05:48:18.854Z,75.96
2019-03-05T05:50:47.584Z,76.00
2019-03-05T05:53:16.255Z,75.94
2019-03-05T05:55:44.753Z,75.92
2019-03-05T05:58:13.415Z,75.95
2019-03-05T06:00:43.530Z,75.54
2019-03-05T06:03:12.385Z,75.63
2019-03-05T06:05:41.012Z,75.58
2019-03-05T06:08:09.860Z,75.64
2019-03-05T06:10:38.789Z,75.53
2019-03-05T06:13:07.432Z,75.38
2019-03-05T06:15:36.009Z,75.22
2019-03-05T06:18:04.732Z,75.07
2019-03-05T06:20:33.220Z,75.30
2019-03-05T06:23:01.814Z,75.04
2019-03-05T06:25:30.420Z,74.77
2019-03-05T06:27:59.128Z,74.66
2019-03-05T06:30:30.665Z,74.53
2019-03-05T06:32:59.589Z,74.60
2019-03-05T06:35:28.236Z,74.58
2019-03-05T06:37:56.909Z,74.71
2019-03-05T06:40:27.144Z,74.24
2019-03-05T06:42:55.808Z,74.09
2019-03-05T06:45:24.373Z,74.01
2019-03-05T06:47:53.215Z,73.73
2019-03-05T06:50:23.236Z,73.77
2019-03-05T06:52:52.079Z,73.33
2019-03-05T06:55:20.688Z,73.56
2019-03-05T06:57:49.250Z,73.62
2019-03-05T07:00:38.858Z,73.47
2019-03-05T07:03:09.079Z,72.93
2019-03-05T07:06:13.296Z,72.78
2019-03-05T07:08:44.991Z,72.76
2019-03-05T07:11:37.495Z,72.20
2019-03-05T07:14:11.715Z,72.27
2019-03-05T07:16:55.534Z,71.85
2019-03-05T07:19:26.397Z,71.55
2019-03-05T07:21:58.032Z,71.19
2019-03-05T07:24:44.884Z,70.91
2019-03-05T07:27:15.668Z,70.86
2019-03-05T07:29:44.432Z,70.43
2019-03-05T07:32:13.037Z,69.87
2019-03-05T07:34:43.227Z,69.82
2019-03-05T07:37:12.814Z,68.70
2019-03-05T07:39:41.379Z,68.47
2019-03-05T07:42:10.151Z,68.20
2019-03-05T07:44:39.143Z,67.22
2019-03-05T07:47:07.757Z,66.68
2019-03-05T07:49:43.830Z,66.44
2019-03-05T07:52:07.132Z,66.57
2019-03-05T07:54:35.836Z,66.48
2019-03-05T07:57:04.524Z,66.59
2019-03-05T07:59:33.183Z,66.81
2019-03-05T08:02:01.967Z,66.74
2019-03-05T08:04:30.521Z,66.08
2019-03-05T08:06:59.066Z,65.69
2019-03-05T08:09:32.204Z,65.78
2019-03-05T08:12:13.002Z,65.17
2019-03-05T08:14:50.097Z,65.13
2019-03-05T08:17:19.008Z,64.81
2019-03-05T08:19:47.545Z,64.73
2019-03-05T08:22:16.148Z,64.52
2019-03-05T08:24:45.810Z,64.87
2019-03-05T08:27:14.395Z,64.75
2019-03-05T08:29:42.970Z,64.74
2019-03-05T08:32:11.604Z,64.60
2019-03-05T08:34:43.872Z,65.01
2019-03-05T08:37:13.595Z,66.38
2019-03-05T08:39:42.578Z,66.78
2019-03-05T08:42:11.435Z,66.62
2019-03-05T08:44:49.917Z,65.98
2019-03-05T08:47:10.381Z,65.66
2019-03-05T08:49:39.006Z,65.41
2019-03-05T08:52:07.697Z,64.34
2019-03-05T08:54:36.873Z,63.60
2019-03-05T08:57:06.224Z,63.16
2019-03-05T08:59:38.703Z,63.22
2019-03-05T09:02:07.354Z,62.73
2019-03-05T09:04:35.905Z,63.02
2019-03-05T09:07:04.452Z,63.12
2019-03-05T09:12:16.630Z,61.21
2019-03-05T09:14:45.314Z,60.93
2019-03-05T09:17:14.102Z,61.26
2019-03-05T09:19:42.726Z,61.92
2019-03-05T09:22:11.286Z,62.03
2019-03-05T09:24:39.855Z,62.10
2019-03-05T09:27:08.412Z,62.77
2019-03-05T09:29:37.026Z,62.37
2019-03-05T09:32:05.938Z,62.33
2019-03-05T09:34:34.498Z,62.25
2019-03-05T09:37:03.362Z,62.95
2019-03-05T09:39:32.035Z,62.93
2019-03-05T09:42:00.619Z,62.41
2019-03-05T09:44:29.241Z,62.15
2019-03-05T09:46:57.797Z,61.13
2019-03-05T09:49:26.473Z,61.63
2019-03-05T09:51:55.085Z,62.65
2019-03-05T09:54:23.783Z,63.56
2019-03-05T09:56:52.430Z,63.59
2019-03-05T09:59:21.120Z,63.52
2019-03-05T10:01:51.539Z,63.49
2019-03-05T10:04:20.084Z,62.82
2019-03-05T10:06:49.035Z,63.23
2019-03-05T10:09:17.656Z,63.02
2019-03-05T10:11:46.289Z,63.22
2019-03-05T10:14:14.925Z,62.42
2019-03-05T10:16:43.564Z,59.75
2019-03-05T10:19:12.186Z,60.21
2019-03-05T10:21:46.217Z,59.36
2019-03-05T10:24:11.322Z,58.43
2019-03-05T10:26:40.231Z,58.33
2019-03-05T10:29:08.835Z,58.11
2019-03-05T10:31:37.405Z,56.94
2019-03-05T10:34:05.926Z,56.24
2019-03-05T10:36:34.602Z,54.07
2019-03-05T10:39:03.731Z,54.08
2019-03-05T10:41:32.296Z,53.86
2019-03-05T10:44:03.586Z,51.09
2019-03-05T10:46:32.171Z,50.26
2019-03-05T10:49:00.907Z,48.65
2019-03-05T10:51:29.499Z,48.78
2019-03-05T10:53:58.111Z,49.95
2019-03-05T10:56:26.699Z,46.88
2019-03-05T10:58:55.240Z,47.80
2019-03-05T11:01:23.843Z,49.02
2019-03-05T11:03:52.581Z,48.92
2019-03-05T11:06:21.127Z,47.40
2019-03-05T11:08:50.580Z,48.34
2019-03-05T11:11:19.124Z,49.96
2019-03-05T11:13:47.809Z,51.40
2019-03-05T11:16:16.370Z,51.31
2019-03-05T11:18:44.884Z,53.17
2019-03-05T11:21:13.453Z,54.35
2019-03-05T11:23:42.091Z,55.62
2019-03-05T11:26:10.598Z,55.98
2019-03-05T11:28:39.049Z,56.18
2019-03-05T11:31:08.352Z,55.69
2019-03-05T11:33:36.989Z,54.38
2019-03-05T11:36:06.126Z,54.52
2019-03-05T11:38:34.868Z,54.86
2019-03-05T11:41:03.648Z,54.99
2019-03-05T11:43:32.425Z,55.27
2019-03-05T11:46:01.057Z,55.59
2019-03-05T11:48:29.495Z,55.12
2019-03-05T11:50:58.045Z,55.84
2019-03-05T11:53:26.624Z,56.12
2019-03-05T11:55:58.005Z,56.82
2019-03-05T11:58:26.626Z,56.66
2019-03-05T12:01:02.924Z,56.84
2019-03-05T12:03:31.476Z,56.40
2019-03-05T12:06:00.013Z,57.16
2019-03-05T12:08:28.638Z,58.47
2019-03-05T12:10:57.249Z,59.49
2019-03-05T12:13:26.235Z,60.25
2019-03-05T12:15:54.848Z,59.99
2019-03-05T12:18:25.370Z,59.89
2019-03-05T12:20:53.974Z,59.43
2019-03-05T12:23:22.607Z,58.89
2019-03-05T12:25:51.450Z,58.71
2019-03-05T12:28:20.069Z,57.87
2019-03-05T12:30:48.635Z,58.14
2019-03-05T12:33:17.509Z,58.99
2019-03-05T12:35:46.082Z,58.99
2019-03-05T12:38:14.886Z,59.17
2019-03-05T12:40:43.409Z,59.31
2019-03-05T12:43:12.058Z,59.79
2019-03-05T12:45:40.583Z,60.20
2019-03-05T12:48:09.244Z,59.30
2019-03-05T12:50:38.411Z,54.24
2019-03-05T12:53:07.267Z,50.07
2019-03-05T12:55:35.951Z,48.72
2019-03-05T12:58:04.701Z,49.32
2019-03-05T13:00:35.424Z,51.43
2019-03-05T13:03:04.305Z,51.89
2019-03-05T13:05:32.887Z,52.51
2019-03-05T13:08:01.672Z,51.88
2019-03-05T13:10:37.333Z,54.72
2019-03-05T13:13:05.814Z,55.87
2019-03-05T13:15:41.828Z,56.79
2019-03-05T13:18:10.426Z,57.25
2019-03-05T13:20:39.081Z,58.43
2019-03-05T13:23:10.728Z,59.63
2019-03-05T13:25:39.855Z,58.16
2019-03-05T13:28:08.480Z,57.16
2019-03-05T13:30:37.121Z,54.04
2019-03-05T13:33:05.657Z,51.79
2019-03-05T13:35:34.690Z,52.11
2019-03-05T13:38:09.792Z,52.10
2019-03-05T13:40:40.504Z,50.66
2019-03-05T13:43:08.830Z,51.25
2019-03-05T13:45:37.370Z,51.08
2019-03-05T13:48:41.986Z,50.31
2019-03-05T13:51:23.155Z,52.17
2019-03-05T13:54:10.640Z,54.17
2019-03-05T13:56:51.114Z,55.77
2019-03-05T13:59:44.916Z,56.53
2019-03-05T14:02:17.473Z,56.95
2019-03-05T14:04:52.040Z,57.73
2019-03-05T14:07:26.461Z,57.97
2019-03-05T14:09:55.190Z,57.64
2019-03-05T14:12:23.813Z,58.06
2019-03-05T14:14:52.214Z,59.60
2019-03-05T14:17:22.345Z,61.27
2019-03-05T14:19:50.984Z,60.64
2019-03-05T14:22:20.398Z,60.99
2019-03-05T14:25:01.032Z,60.09
2019-03-05T14:27:20.040Z,59.29
2019-03-05T14:29:49.248Z,58.29
2019-03-05T14:32:18.142Z,58.05
2019-03-05T14:34:49.765Z,57.34
2019-03-05T14:37:18.468Z,56.53
2019-03-05T14:39:47.173Z,55.60
2019-03-05T14:42:15.864Z,55.58
2019-03-05T14:44:44.565Z,49.61
2019-03-05T14:47:13.213Z,47.96
2019-03-05T14:49:41.796Z,45.60
2019-03-05T14:52:10.379Z,46.42
2019-03-05T14:54:39.275Z,46.55
2019-03-05T14:57:08.010Z,44.61
2019-03-05T14:59:36.951Z,41.80
2019-03-05T15:02:05.846Z,40.38
2019-03-05T15:04:34.561Z,39.47
2019-03-05T15:07:04.676Z,42.79
2019-03-05T15:09:33.518Z,45.02
2019-03-05T15:12:02.082Z,49.91
2019-03-05T15:14:30.806Z,52.31
2019-03-05T15:16:59.537Z,54.00
2019-03-05T15:19:28.156Z,55.23
2019-03-05T15:21:56.781Z,56.64
2019-03-05T15:24:25.471Z,57.84
2019-03-05T15:26:54.035Z,59.13
2019-03-05T15:29:22.713Z,59.56
2019-03-05T15:31:51.357Z,60.72
2019-03-05T15:34:19.833Z,61.61
2019-03-05T15:36:51.938Z,62.94
2019-03-05T15:39:19.030Z,65.05
2019-03-05T15:41:47.700Z,66.33
2019-03-05T15:44:16.314Z,67.21
2019-03-05T15:46:50.276Z,67.67
2019-03-05T15:49:18.979Z,69.67
2019-03-05T15:51:47.664Z,70.33
2019-03-05T15:54:16.578Z,71.51
2019-03-05T15:56:45.187Z,71.16
2019-03-05T15:59:13.831Z,71.66
2019-03-05T16:01:42.482Z,72.31
2019-03-05T16:04:11.093Z,71.98
2019-03-05T16:06:39.650Z,71.76
2019-03-05T16:09:16.055Z,71.90
2019-03-05T16:11:44.503Z,71.57
2019-03-05T16:14:13.126Z,71.00
2019-03-05T16:16:41.877Z,71.35
2019-03-05T16:19:12.482Z,72.16
2019-03-05T16:21:41.519Z,72.38
2019-03-05T16:24:11.313Z,72.19
2019-03-05T16:26:51.216Z,71.93
2019-03-05T16:29:20.855Z,75.43
2019-03-05T16:31:57.276Z,76.85
2019-03-05T16:34:33.289Z,77.72
2019-03-05T16:37:05.669Z,78.19
2019-03-05T16:39:50.564Z,78.49
2019-03-05T16:42:23.766Z,78.53
2019-03-05T16:44:53.863Z,79.12
2019-03-05T16:47:30.070Z,81.46
2019-03-05T16:50:16.446Z,81.32
2019-03-05T16:52:49.380Z,81.01
2019-03-05T16:55:35.874Z,80.86
2019-03-05T16:58:14.553Z,80.30
2019-03-05T17:01:00.964Z,78.38
2019-03-05T17:03:39.987Z,79.02
2019-03-05T17:06:24.912Z,78.26
2019-03-05T17:08:58.093Z,78.48
2019-03-05T17:11:31.335Z,78.29
2019-03-05T17:14:00.002Z,78.37
2019-03-05T17:16:28.562Z,78.03
2019-03-05T17:18:57.020Z,78.20
2019-03-05T17:21:27.831Z,78.05
2019-03-05T17:23:55.922Z,77.87
2019-03-05T17:26:24.575Z,77.77
2019-03-05T17:28:53.272Z,77.92
2019-03-05T17:31:22.021Z,77.76
2019-03-05T17:33:50.643Z,77.86
2019-03-05T17:36:21.205Z,77.96
2019-03-05T17:38:49.834Z,77.81
2019-03-05T17:41:18.481Z,78.75
2019-03-05T17:43:47.182Z,79.08
2019-03-05T17:46:16.076Z,78.98
2019-03-05T17:48:44.677Z,79.34
2019-03-05T17:51:13.553Z,79.88
2019-03-05T17:53:42.251Z,80.17
2019-03-05T17:56:11.229Z,81.03
2019-03-05T17:58:39.803Z,81.88
2019-03-05T18:01:09.246Z,82.25
2019-03-05T18:03:38.160Z,83.95
2019-03-05T18:06:06.952Z,84.04
2019-03-05T18:08:35.701Z,84.01
2019-03-05T18:11:04.331Z,83.93
2019-03-05T18:13:32.946Z,84.65
2019-03-05T18:16:02.059Z,84.38
2019-03-05T18:18:31.165Z,84.86
2019-03-05T18:20:59.826Z,84.45
2019-03-05T18:23:28.398Z,84.45
2019-03-05T18:25:56.957Z,84.18
2019-03-05T18:28:25.749Z,84.23
2019-03-05T18:30:54.609Z,84.22
2019-03-05T18:33:23.321Z,84.40
2019-03-05T18:35:51.990Z,84.72
2019-03-05T18:38:20.598Z,84.60
2019-03-05T18:40:49.465Z,84.57
2019-03-05T18:43:18.638Z,84.47
2019-03-05T18:45:47.247Z,84.89
2019-03-05T18:48:15.910Z,84.56
2019-03-05T18:50:44.717Z,84.80
2019-03-05T18:53:13.839Z,84.75
2019-03-05T18:55:42.499Z,84.72
2019-03-05T18:58:12.166Z,85.04
2019-03-05T19:00:40.806Z,84.59
2019-03-05T19:03:12.298Z,84.39
2019-03-05T19:05:41.006Z,84.10
2019-03-05T19:08:09.676Z,83.92
2019-03-05T19:10:38.316Z,84.40
2019-03-05T19:13:06.948Z,84.41
2019-03-05T19:15:36.233Z,84.27
2019-03-05T19:18:05.865Z,84.23
2019-03-05T19:20:34.630Z,84.45
2019-03-05T19:23:03.378Z,84.77
2019-03-05T19:25:33.887Z,85.34
2019-03-05T19:28:02.715Z,85.29
2019-03-05T19:30:39.070Z,85.14
2019-03-05T19:33:07.808Z,85.74
2019-03-05T19:35:36.516Z,85.57
2019-03-05T19:38:05.349Z,85.75
2019-03-05T19:40:45.487Z,85.98
2019-03-05T19:43:14.119Z,85.75
2019-03-05T19:45:42.662Z,86.06
2019-03-05T19:48:11.376Z,86.04
2019-03-05T19:50:39.927Z,86.20
2019-03-05T19:53:08.541Z,85.93
2019-03-05T19:55:37.046Z,86.32
2019-03-05T19:58:08.629Z,86.30
2019-03-05T20:00:46.176Z,86.49
2019-03-05T20:03:23.858Z,86.45
2019-03-05T20:05:52.588Z,86.40
2019-03-05T20:08:21.296Z,86.49
2019-03-05T20:10:50.180Z,86.25
2019-03-05T20:13:18.811Z,86.11
2019-03-05T20:15:47.557Z,85.96
2019-03-05T20:18:16.259Z,86.13
2019-03-05T20:20:44.846Z,86.34
2019-03-05T20:23:13.434Z,86.59
2019-03-05T20:25:42.216Z,86.76
2019-03-05T20:28:10.921Z,86.73
2019-03-05T20:30:39.500Z,86.49
2019-03-05T20:33:08.514Z,86.39
2019-03-05T20:35:37.078Z,86.96
2019-03-05T20:38:06.165Z,86.95
2019-03-05T20:40:34.738Z,87.12
2019-03-05T20:43:03.945Z,87.02
2019-03-05T20:45:44.273Z,87.22
2019-03-05T20:48:12.976Z,87.21
2019-03-05T20:50:41.544Z,87.31
2019-03-05T20:53:10.433Z,87.66
2019-03-05T20:55:39.069Z,87.96
2019-03-05T20:58:07.694Z,87.64
2019-03-05T21:00:37.560Z,87.55
2019-03-05T21:03:12.800Z,87.52
2019-03-05T21:05:44.996Z,87.31
2019-03-05T21:08:15.344Z,87.16
2019-03-05T21:10:43.868Z,87.22
2019-03-05T21:13:12.727Z,87.53
2019-03-05T21:15:41.668Z,87.40
2019-03-05T21:18:14.669Z,87.24
2019-03-05T21:20:43.246Z,87.06
2019-03-05T21:23:12.243Z,86.97
2019-03-05T21:25:40.931Z,86.77
2019-03-05T21:28:09.521Z,86.54
2019-03-05T21:30:38.164Z,86.52
2019-03-05T21:33:07.007Z,86.29
2019-03-05T21:35:35.559Z,86.19
2019-03-05T21:38:04.131Z,86.30
2019-03-05T21:40:33.385Z,86.52
2019-03-05T21:43:02.000Z,86.18
2019-03-05T21:45:36.265Z,86.19
2019-03-05T21:48:05.751Z,86.16
2019-03-05T21:50:34.377Z,86.19
2019-03-05T21:53:03.247Z,86.23
2019-03-05T21:55:31.902Z,86.20
2019-03-05T21:58:00.452Z,86.01
2019-03-05T22:00:33.620Z,85.90
2019-03-05T22:03:02.885Z,85.66
2019-03-05T22:05:31.609Z,85.93
2019-03-05T22:08:00.185Z,85.96
2019-03-05T22:10:28.728Z,85.99
2019-03-05T22:12:57.226Z,86.07
2019-03-05T22:15:31.108Z,85.96
2019-03-05T22:17:59.682Z,85.98
2019-03-05T22:20:28.226Z,85.95
2019-03-05T22:22:57.119Z,85.99
2019-03-05T22:25:29.210Z,86.02
2019-03-05T22:27:58.211Z,86.53
2019-03-05T22:30:32.122Z,86.73
2019-03-05T22:33:00.921Z,86.54
2019-03-05T22:35:29.531Z,86.57
2019-03-05T22:37:58.167Z,86.61
2019-03-05T22:40:27.622Z,86.34
2019-03-05T22:42:56.388Z,86.31
2019-03-05T22:45:30.067Z,86.22
2019-03-05T22:47:58.717Z,86.21
2019-03-05T22:50:27.399Z,86.11
2019-03-05T22:52:55.969Z,86.18
2019-03-05T22:55:24.724Z,85.95
2019-03-05T22:57:53.455Z,85.69
2019-03-05T23:00:51.724Z,85.80
2019-03-05T23:03:23.117Z,85.66
2019-03-05T23:05:51.873Z,85.86
2019-03-05T23:08:21.847Z,85.86
2019-03-05T23:10:50.737Z,85.87
2019-03-05T23:13:21.876Z,85.86
2019-03-05T23:15:50.589Z,85.63
2019-03-05T23:18:19.483Z,85.98
2019-03-05T23:20:48.127Z,85.81
2019-03-05T23:23:16.851Z,85.62
2019-03-05T23:25:45.527Z,85.68
2019-03-05T23:28:14.198Z,85.55
2019-03-05T23:30:42.776Z,85.63
2019-03-05T23:33:11.426Z,85.60
2019-03-05T23:35:39.909Z,85.39
2019-03-05T23:38:08.490Z,85.41
2019-03-05T23:40:37.051Z,85.27
2019-03-05T23:43:05.871Z,85.18
2019-03-05T23:45:34.620Z,85.42
2019-03-05T23:48:03.135Z,85.58
2019-03-05T23:50:31.693Z,85.62
2019-03-05T23:53:00.341Z,85.19
2019-03-05T23:55:29.304Z,85.36
2019-03-05T23:57:57.957Z,85.34
